Flight Track Log - Related Links

Times and Time Zones

All times are in EDT time to prevent confusion due to time zone crossing. See the N618JB flight status page for this flight to view local times or setup timezone preferences in your user account.

Time Position Orientation Groundspeed Altitude Reporting Facility
EDT Latitude Longitude Course Direction KTS MPH feet Rate Location/Type
Mon 10:31:39 AM 26.6403 -81.7253 344° North 263 303 3,200  Level Miami Center
Mon 10:32:39 AM 26.7111 -81.7306 356° North 289 333 6,800 3,500 Climbing Miami Center
Mon 10:33:00 AM 27.0537 -81.7482 340° North  Level FlightAware Approximate
Mon 10:33:39 AM 26.7903 -81.7361 356° North 289 333 10,200  Level Miami Center
Mon 10:34:00 AM 27.1785 -81.7928 343° North  Level FlightAware Approximate
Mon 10:34:39 AM 26.8800 -81.7400 358° North 297 342 11,400  Level Miami Center
Mon 10:35:00 AM 27.3032 -81.8379 340° North  Level FlightAware Approximate
Mon 10:35:39 AM 26.9883 -81.7444 358° North 331 381 13,100  Level Miami Center
Mon 10:36:00 AM 27.4283 -81.8817 344° North  Level FlightAware Approximate
Mon 10:36:39 AM 27.0919 -81.7675 349° North 366 421 16,300  Level Miami Center
Mon 10:37:00 AM 27.5539 -81.9235 344° North  Level FlightAware Approximate
Mon 10:37:39 AM 27.1847 -81.7972 344° North 373 429 18,500  Level Miami Center
Mon 10:38:39 AM 27.2903 -81.8297 345° North 383 441 20,600 1,850 Climbing Miami Center
Mon 10:39:39 AM 27.4056 -81.8719 342° North 388 447 22,200 1,550 Climbing Miami Center
Mon 10:40:39 AM 27.5169 -81.9097 343° North 400 460 23,700 1,400 Climbing Miami Center
Mon 10:41:39 AM 27.6347 -81.8844 11° North 428 493 25,000 1,300 Climbing Miami Center
Mon 10:42:39 AM 27.7392 -81.8186 29° Northeast 443 510 26,300 1,250 Climbing Miami Center
Mon 10:43:39 AM 27.8669 -81.7444 27° Northeast 458 527 27,500 1,200 Climbing Miami Center
Mon 10:44:39 AM 27.9883 -81.6744 27° Northeast 463 533 28,700 1,250 Climbing Miami Center
Mon 10:45:39 AM 28.1200 -81.6636 North 461 531 30,000 1,550 Climbing Miami Center
Mon 10:46:39 AM 28.2497 -81.6550 North 461 531 31,800 1,400 Climbing Miami Center
Mon 10:47:39 AM 28.3794 -81.6464 North 466 536 32,800 1,100 Climbing Miami Center
Mon 10:48:39 AM 28.5089 -81.6400 North 466 536 34,000 1,091 Climbing Miami Center
Mon 10:48:56 AM 28.5342 -81.6378 North 480 552 34,200 779 Climbing Jacksonville Center
Mon 10:49:56 AM 28.6633 -81.6292 North 486 559 35,000 400 Climbing Jacksonville Center
Mon 10:50:56 AM 28.7925 -81.6181 North 476 548 35,000  Level Jacksonville Center
Mon 10:51:57 AM 28.9242 -81.6117 North 471 542 35,000  Level Jacksonville Center
Mon 10:52:56 AM 29.0533 -81.6003 North 471 542 35,000  Level Jacksonville Center
Mon 10:53:56 AM 29.1806 -81.5917 North 465 535 35,000  Level Jacksonville Center
Mon 10:54:56 AM 29.3100 -81.5875 North 459 528 35,000  Level Jacksonville Center
Mon 10:55:56 AM 29.4414 -81.5761 North 459 528 35,000  Level Jacksonville Center
Mon 10:56:56 AM 29.5706 -81.5672 North 459 528 35,000  Level Jacksonville Center
Mon 10:57:56 AM 29.7147 -81.5558 North 466 536 35,000  Level Jacksonville Center
Mon 10:58:56 AM 29.8439 -81.5469 North 466 536 35,000  Level Jacksonville Center
Mon 10:59:56 AM 29.9711 -81.5356 North 461 531 35,000  Level Jacksonville Center
Mon 11:00:56 AM 30.1047 -81.5264 North 461 531 35,000  Level Jacksonville Center
Mon 11:01:57 AM 30.2342 -81.5172 North 461 531 35,000  Level Jacksonville Center
Mon 11:02:56 AM 30.3656 -81.5083 North 461 531 35,000  Level Jacksonville Center
Mon 11:03:56 AM 30.4989 -81.4967 North 461 531 35,000  Level Jacksonville Center
Mon 11:04:56 AM 30.6283 -81.4875 North 461 531 35,000  Level Jacksonville Center
Mon 11:05:56 AM 30.7578 -81.4758 North 461 531 35,000  Level Jacksonville Center
Mon 11:06:56 AM 30.8911 -81.4692 North 466 536 35,000  Level Jacksonville Center
Mon 11:07:56 AM 31.0247 -81.4575 North 472 543 35,000  Level Jacksonville Center
Mon 11:08:56 AM 31.1561 -81.4433 North 472 543 35,000  Level Jacksonville Center
Mon 11:09:56 AM 31.2875 -81.4292 North 477 549 35,000  Level Jacksonville Center
Mon 11:10:56 AM 31.4164 -81.3931 13° North 482 555 35,000  Level Jacksonville Center
Mon 11:11:56 AM 31.5475 -81.3592 12° North 476 548 35,000  Level Jacksonville Center
Mon 11:12:56 AM 31.6808 -81.3253 12° North 481 554 35,000  Level Jacksonville Center
Mon 11:13:56 AM 31.8119 -81.2889 13° North 481 554 35,000  Level Jacksonville Center
Mon 11:14:56 AM 31.9306 -81.2572 13° North 487 560 35,000  Level Jacksonville Center
Mon 11:15:57 AM 32.0636 -81.2206 13° North 487 560 35,000  Level Jacksonville Center
Mon 11:16:56 AM 32.1814 -81.1350 32° Northeast 487 560 35,000  Level Jacksonville Center
Mon 11:17:56 AM 32.2989 -81.0197 40° Northeast 489 563 35,000  Level Jacksonville Center
Mon 11:18:56 AM 32.4058 -80.9142 40° Northeast 494 568 35,000  Level Jacksonville Center
Mon 11:19:56 AM 32.5003 -80.8186 40° Northeast 494 568 35,000  Level Jacksonville Center
Mon 11:20:56 AM 32.6069 -80.7125 40° Northeast 494 568 35,000  Level Jacksonville Center
Mon 11:21:56 AM 32.7139 -80.6086 39° Northeast 494 568 35,000  Level Jacksonville Center
Mon 11:22:56 AM 32.8203 -80.5022 40° Northeast 494 568 35,000  Level Jacksonville Center
Mon 11:23:56 AM 32.9269 -80.3981 39° Northeast 494 568 35,000  Level Jacksonville Center
Mon 11:24:57 AM 33.0436 -80.2856 39° Northeast 505 581 35,000  Level Jacksonville Center
Mon 11:25:56 AM 33.1558 -80.1658 42° Northeast 504 580 35,000  Level Jacksonville Center
Mon 11:26:56 AM 33.2661 -80.0581 39° Northeast 498 573 35,000  Level Jacksonville Center
Mon 11:27:56 AM 33.3722 -79.9503 40° Northeast 498 573 35,000  Level Jacksonville Center
Mon 11:28:56 AM 33.4803 -79.8397 40° Northeast 498 573 35,000  Level Jacksonville Center
Mon 11:29:56 AM 33.5861 -79.7286 41° Northeast 498 573 35,000  Level Jacksonville Center
Mon 11:30:56 AM 33.6939 -79.6200 40° Northeast 498 573 35,000  Level Jacksonville Center
Mon 11:31:56 AM 33.8014 -79.5086 42° Northeast 498 573 35,000  Level Jacksonville Center
Mon 11:32:00 AM 33.7952 -79.5112 42° Northeast  Level FlightAware Approximate
Mon 11:33:54 AM 33.9994 -79.3014 41° Northeast 482 555 35,000  Level Washington Center
Mon 11:34:54 AM 34.1114 -79.1911 39° Northeast 493 567 35,000  Level Washington Center
Mon 11:35:54 AM 34.2192 -79.0778 41° Northeast 503 579 35,000  Level Washington Center
Mon 11:36:54 AM 34.3433 -78.9647 37° Northeast 509 586 35,000  Level Washington Center
Mon 11:37:54 AM 34.4692 -78.8717 31° Northeast 515 593 35,000  Level Washington Center
Mon 11:38:55 AM 34.5839 -78.7881 31° Northeast 526 605 35,000  Level Washington Center
Mon 11:39:54 AM 34.7075 -78.6894 33° Northeast 526 605 35,000  Level Washington Center
Mon 11:40:54 AM 34.8267 -78.5978 32° Northeast 526 605 35,000  Level Washington Center
Mon 11:41:54 AM 34.9500 -78.5036 32° Northeast 526 605 35,000  Level Washington Center
Mon 11:42:54 AM 35.0756 -78.4067 32° Northeast 526 605 35,000  Level Washington Center
Mon 11:43:54 AM 35.1967 -78.3117 33° Northeast 526 605 35,000  Level Washington Center
Mon 11:44:54 AM 35.3242 -78.2142 32° Northeast 526 605 35,000  Level Washington Center
Mon 11:45:54 AM 35.4492 -78.1161 33° Northeast 531 611 35,000  Level Washington Center
Mon 11:46:54 AM 35.5722 -78.0206 32° Northeast 531 611 35,000  Level Washington Center
Mon 11:47:54 AM 35.6994 -77.9247 31° Northeast 526 605 35,000  Level Washington Center
Mon 11:48:54 AM 35.8222 -77.8258 33° Northeast 526 605 35,000  Level Washington Center
Mon 11:49:54 AM 35.9472 -77.7292 32° Northeast 526 605 35,000  Level Washington Center
Mon 11:50:54 AM 36.0658 -77.6244 36° Northeast 526 605 35,000  Level Washington Center
Mon 11:51:54 AM 36.1825 -77.5142 37° Northeast 526 605 35,000  Level Washington Center
Mon 11:52:54 AM 36.3117 -77.3911 37° Northeast 521 600 35,000  Level Washington Center
Mon 11:53:54 AM 36.4281 -77.2803 37° Northeast 526 605 35,000  Level Washington Center
Mon 11:54:54 AM 36.5231 -77.1919 37° Northeast 526 605 35,000  Level Washington Center
Mon 11:55:54 AM 36.6397 -77.0286 48° Northeast 520 598 35,000  Level Washington Center
Mon 11:56:54 AM 36.7125 -76.8719 60° Northeast 520 598 35,000  Level Washington Center
Mon 11:57:54 AM 36.8097 -76.7567 43° Northeast 525 604 35,000  Level Washington Center
Mon 11:58:54 AM 36.9358 -76.6597 32° Northeast 530 610 35,000  Level Washington Center
Mon 11:59:54 AM 37.0639 -76.5653 30° Northeast 530 610 35,000  Level Washington Center
Mon 12:00:54 PM 37.1917 -76.4706 31° Northeast 530 610 35,000  Level Washington Center
Mon 12:01:54 PM 37.3217 -76.3753 30° Northeast 530 610 35,000  Level Washington Center
Mon 12:02:54 PM 37.4517 -76.2797 30° Northeast 536 617 35,000  Level Washington Center
Mon 12:03:54 PM 37.5814 -76.1814 31° Northeast 536 617 35,000  Level Washington Center
Mon 12:04:54 PM 37.7239 -76.0775 30° Northeast 530 610 35,000  Level Washington Center
Mon 12:05:54 PM 37.8389 -75.9861 32° Northeast 535 616 35,000  Level Washington Center
Mon 12:06:55 PM 37.9850 -75.8736 31° Northeast 549 632 35,000  Level Washington Center
Mon 12:07:54 PM 38.1125 -75.7764 31° Northeast 549 632 35,000  Level Washington Center
Mon 12:08:54 PM 38.2439 -75.6789 30° Northeast 544 626 35,000  Level Washington Center
Mon 12:09:54 PM 38.3650 -75.5892 30° Northeast 544 626 35,000  Level Washington Center
Mon 12:10:54 PM 38.4922 -75.4936 30° Northeast 539 620 35,000  Level Washington Center
Mon 12:11:54 PM 38.6233 -75.3925 31° Northeast 539 620 35,000  Level Washington Center
Mon 12:12:54 PM 38.7544 -75.2881 32° Northeast 539 620 35,000  Level Washington Center
Mon 12:13:55 PM 38.8833 -75.1917 30° Northeast 539 620 35,000  Level Washington Center
Mon 12:14:54 PM 39.0144 -75.0842 32° Northeast 539 620 35,000  Level Washington Center
Mon 12:15:54 PM 39.1450 -74.9786 32° Northeast 539 620 35,000  Level Washington Center
Mon 12:16:54 PM 39.2758 -74.8758 31° Northeast 545 627 35,000 -50 Level Washington Center
Mon 12:17:54 PM 39.4064 -74.7722 32° Northeast 545 627 34,900  Descending Washington Center
Mon 12:19:41 PM 39.6456 -74.5803 32° Northeast 569 655 35,000 36 Climbing New York Center
Mon 12:20:41 PM 39.7761 -74.4739 32° Northeast 558 642 35,000  Level New York Center
Mon 12:21:39 PM 39.8981 -74.3778 31° Northeast 558 642 35,000  Level New York Center
Mon 12:22:39 PM 40.0264 -74.2706 33° Northeast 553 636 35,000 -50 Level New York Center
Mon 12:23:40 PM 40.1628 -74.1606 32° Northeast 558 642 34,900 -1,041 Descending New York Center
Mon 12:24:40 PM 40.2953 -74.0528 32° Northeast 558 642 32,900 -1,900 Descending New York Center
Mon 12:25:40 PM 40.4253 -73.9444 32° Northeast 558 642 31,100 -1,819 Descending New York Center
Mon 12:27:15 PM 40.6339 -73.7583 34° Northeast 545 627 28,200 -1,703 Descending Boston Center
Mon 12:28:15 PM 40.7247 -73.6369 45° Northeast 523 602 26,700 -1,650 Descending Boston Center
Mon 12:29:15 PM 40.8158 -73.4986 49° Northeast 504 580 24,900 -1,350 Descending Boston Center
Mon 12:30:15 PM 40.9022 -73.3711 48° Northeast 483 556 24,000 -1,150 Descending Boston Center
Mon 12:31:15 PM 40.9908 -73.2486 46° Northeast 434 499 22,600 -1,400 Descending Boston Center
Mon 12:32:15 PM 41.0561 -73.1256 55° Northeast 419 482 21,200 -800 Descending Boston Center
Mon 12:33:15 PM 41.1092 -72.9856 63° Northeast 413 475 21,000 -100 Descending Boston Center
Mon 12:34:15 PM 41.1658 -72.8428 62° Northeast 419 482 21,000  Level Boston Center
Mon 12:35:15 PM 41.2247 -72.7022 61° Northeast 430 495 21,000  Level Boston Center
Mon 12:36:15 PM 41.2769 -72.5728 62° Northeast 430 495 21,000  Level Boston Center
Mon 12:37:15 PM 41.3333 -72.4289 62° Northeast 436 502 21,000  Level Boston Center
Mon 12:38:15 PM 41.3917 -72.2853 62° Northeast 431 496 21,000 -450 Level Boston Center
Mon 12:39:15 PM 41.4497 -72.1328 63° Northeast 420 483 20,100 -1,550 Descending Boston Center
Mon 12:40:15 PM 41.5075 -71.9967 60° Northeast 413 475 17,900 -1,850 Descending Boston Center
Mon 12:41:15 PM 41.5528 -71.8769 63° Northeast 403 464 16,400 -1,650 Descending Boston Center
Mon 12:42:15 PM 41.6064 -71.7378 63° Northeast 389 448 14,600 -1,750 Descending Boston Center
Mon 12:43:15 PM 41.6492 -71.6289 62° Northeast 374 430 12,900 -1,600 Descending Boston Center
Mon 12:44:15 PM 41.6942 -71.5058 64° Northeast 342 394 11,400 -1,000 Descending Boston Center
Mon 12:45:15 PM 41.7350 -71.4108 60° Northeast 302 348 10,900 -200 Descending Boston Center
Mon 12:46:15 PM 41.7947 -71.3375 42° Northeast 290 334 11,000 50 Climbing Boston Center
Mon 12:47:15 PM 41.8567 -71.2667 40° Northeast 285 328 11,000 -450 Level Boston Center
Mon 12:48:15 PM 41.9289 -71.2122 29° Northeast 285 328 10,100 -1,200 Descending Boston Center
Mon 12:49:15 PM 42.0036 -71.1800 18° North 279 321 8,600 -1,650 Descending Boston Center
Mon 12:50:15 PM 42.0761 -71.1422 21° North 279 321 6,800 -2,000 Descending Boston Center
Mon 12:51:09 PM 42.1500 -71.1167 14° North 271 312 4,800 -1,947 Descending KA90
Mon 12:52:09 PM 42.2000 -71.0833 26° Northeast 248 285 3,100 -1,300 Descending KA90
Mon 12:53:09 PM 42.2667 -71.0500 20° North 195 224 2,200 -900 Descending KA90
Mon 12:54:09 PM 42.3000 -71.0333 20° North 139 160 1,300 -800 Descending KA90
Mon 12:55:09 PM 42.3333 -71.0167 20° North 124 143 600 6,355 Descending KA90
Mon 12:57:15 PM 42.4264 -70.9692 21° North 157 181 21,000 9,714 Climbing Boston Center

Login

Don't have an account? Register now (free) for customized features, flight alerts, and more!